Time;durP1;ratioP1;P1;durP2;ratioP2;P2;SDS_P1;SDS_P2;PMS_P1;PMS_P2;Temp;Humidity;BMP_temperature;BMP_pressure;BME280_temperature;BME280_humidity;BME280_pressure;Samples;Min_cycle;Max_cycle;Signal;HPM_P1;HPM_P2
2023/09/23 00:00:52;;;;;;;;;;;;;;;14.52;69.88;97409.53;5023132;28;20285;-61
2023/09/23 00:03:21;;;;;;;;;;;;;;;14.42;70.43;97408.84;5027633;28;19926;-61
2023/09/23 00:05:49;;;;;;;;;;;;;;;14.36;70.74;97409.47;5029017;28;20014;-61
2023/09/23 00:08:18;;;;;;;;;;;;;;;14.33;70.59;97407.44;5030350;28;19925;-61
2023/09/23 00:10:47;;;;;;;;;;;;;;;14.35;70.38;97405.16;5029829;28;20016;-61
2023/09/23 00:13:15;;;;;;;;;;;;;;;14.38;70.14;97409.91;5026559;28;19939;-61
2023/09/23 00:15:44;;;;;;;;;;;;;;;14.38;70.15;97412.63;5027928;28;19933;-61
2023/09/23 00:18:17;;;;;;;;;;;;;;;14.42;69.99;97408.06;5029828;28;19932;-61
2023/09/23 00:20:45;;;;;;;;;;;;;;;14.37;69.93;97416.50;5028228;28;20370;-61
2023/09/23 00:23:13;;;;;;;;;;;;;;;14.36;70.07;97412.97;5030020;28;20387;-61
2023/09/23 00:25:41;;;;;;;;;;;;;;;14.35;69.86;97407.88;5029466;28;19929;-61
2023/09/23 00:28:11;;;;;;;;;;;;;;;14.34;70.13;97406.28;5028924;28;19925;-61
2023/09/23 00:30:38;;;;;;;;;;;;;;;14.28;70.12;97403.00;5029780;28;21586;-61
2023/09/23 00:33:08;;;;;;;;;;;;;;;14.23;70.08;97407.94;5010516;28;19929;-61
2023/09/23 00:35:36;;;;;;;;;;;;;;;14.16;70.33;97400.31;5023056;28;19929;-61
2023/09/23 00:38:06;;;;;;;;;;;;;;;14.12;70.24;97407.63;5011849;28;20421;-61
2023/09/23 00:40:38;;;;;;;;;;;;;;;14.08;70.32;97404.00;5005401;28;19929;-61
2023/09/23 00:43:11;;;;;;;;;;;;;;;14.11;70.45;97408.75;5011295;28;19986;-61
2023/09/23 00:45:42;;;;;;;;;;;;;;;14.02;70.28;97417.09;5026898;28;19933;-61
2023/09/23 00:48:11;;;;;;;;;;;;;;;14.00;70.32;97422.09;5011175;28;20444;-61
2023/09/23 00:50:39;;;;;;;;;;;;;;;13.96;70.31;97418.47;5011721;28;20405;-61
2023/09/23 00:53:08;;;;;;;;;;;;;;;13.92;70.41;97422.25;5012016;28;19932;-61
2023/09/23 00:55:42;;;;;;;;;;;;;;;13.91;70.40;97421.44;5023498;28;19925;-61
2023/09/23 00:58:14;;;;;;;;;;;;;;;13.83;70.44;97425.09;5010797;28;19926;-61
2023/09/23 01:00:42;;;;;;;;;;;;;;;13.81;70.86;97430.13;5018708;28;20028;-61
2023/09/23 01:03:14;;;;;;;;;;;;;;;13.81;70.88;97416.47;5005998;28;20547;-61
2023/09/23 01:05:41;;;;;;;;;;;;;;;13.80;70.87;97409.41;5021955;28;19936;-61
2023/09/23 01:08:25;;;;;;;;;;;;;;;13.71;70.12;97408.75;5010279;28;19925;-61
2023/09/23 01:10:53;;;;;;;;;;;;;;;13.73;70.48;97417.38;5027771;28;19960;-61
2023/09/23 01:13:23;;;;;;;;;;;;;;;13.68;70.58;97415.66;5025610;28;19925;-61
2023/09/23 01:15:51;;;;;;;;;;;;;;;13.65;70.39;97426.50;5027846;28;19925;-61
2023/09/23 01:18:20;;;;;;;;;;;;;;;13.63;70.13;97426.81;5011177;28;19925;-61
2023/09/23 01:20:48;;;;;;;;;;;;;;;13.59;70.11;97432.19;5008103;28;19936;-61
2023/09/23 01:23:18;;;;;;;;;;;;;;;13.59;70.08;97426.72;5028005;28;19959;-61
2023/09/23 01:25:46;;;;;;;;;;;;;;;13.57;69.82;97433.66;5026409;28;19925;-62
2023/09/23 01:28:13;;;;;;;;;;;;;;;13.58;69.73;97441.53;5024622;28;20421;-61
2023/09/23 01:30:43;;;;;;;;;;;;;;;13.59;69.48;97447.78;5024353;28;19940;-61
2023/09/23 01:33:13;;;;;;;;;;;;;;;13.67;69.56;97444.09;5006725;28;20294;-61
2023/09/23 01:35:42;;;;;;;;;;;;;;;13.71;69.39;97434.09;5010380;28;20655;-61
2023/09/23 01:38:09;;;;;;;;;;;;;;;13.76;69.35;97435.81;5024105;28;20040;-61
2023/09/23 01:40:39;;;;;;;;;;;;;;;13.74;69.07;97443.53;5007680;28;19925;-61
2023/09/23 01:43:09;;;;;;;;;;;;;;;13.70;69.07;97462.53;5023631;28;20371;-61
2023/09/23 01:45:38;;;;;;;;;;;;;;;13.72;69.25;97470.38;5023802;28;19925;-61
2023/09/23 01:48:06;;;;;;;;;;;;;;;13.72;69.43;97476.63;5022350;28;19925;-61
2023/09/23 01:50:34;;;;;;;;;;;;;;;13.76;69.12;97484.94;5023031;28;19935;-61
2023/09/23 01:53:01;;;;;;;;;;;;;;;13.81;69.26;97488.25;5025621;28;19932;-61
2023/09/23 01:55:29;;;;;;;;;;;;;;;13.85;68.84;97488.38;5024127;28;19925;-61
2023/09/23 01:57:58;;;;;;;;;;;;;;;13.90;68.58;97496.28;5009805;28;19994;-61
2023/09/23 02:00:28;;;;;;;;;;;;;;;13.95;68.87;97507.00;5005060;28;19929;-61
2023/09/23 02:02:57;;;;;;;;;;;;;;;13.96;68.72;97507.81;5021032;28;20473;-61
2023/09/23 02:05:27;;;;;;;;;;;;;;;13.97;68.51;97514.84;5023405;28;19941;-61
2023/09/23 02:07:55;;;;;;;;;;;;;;;13.94;68.66;97519.06;5027109;28;20022;-61
2023/09/23 02:10:26;;;;;;;;;;;;;;;13.98;68.74;97524.63;5001892;28;20422;-61
2023/09/23 02:12:53;;;;;;;;;;;;;;;13.96;68.32;97516.78;5010422;28;19925;-61
2023/09/23 02:15:22;;;;;;;;;;;;;;;13.97;68.78;97526.56;5025757;28;19933;-61
2023/09/23 02:17:50;;;;;;;;;;;;;;;13.91;68.05;97532.63;5008008;28;19925;-61
2023/09/23 02:20:21;;;;;;;;;;;;;;;13.85;67.93;97534.78;5008628;28;20286;-61
2023/09/23 02:22:49;;;;;;;;;;;;;;;13.85;68.01;97542.97;5020647;28;20075;-61
2023/09/23 02:25:17;;;;;;;;;;;;;;;13.75;67.56;97536.03;5008916;28;20591;-61
2023/09/23 02:27:46;;;;;;;;;;;;;;;13.72;68.01;97539.44;5009435;28;19975;-61
2023/09/23 02:30:14;;;;;;;;;;;;;;;13.78;68.11;97542.72;5028423;28;19929;-61
2023/09/23 02:32:44;;;;;;;;;;;;;;;13.78;67.68;97548.19;5028772;28;19936;-61
2023/09/23 02:35:12;;;;;;;;;;;;;;;13.73;67.81;97562.06;5028856;28;19932;-61
2023/09/23 02:37:40;;;;;;;;;;;;;;;13.71;67.84;97569.81;5027182;28;19932;-61
2023/09/23 02:40:11;;;;;;;;;;;;;;;13.68;68.20;97567.75;5028355;28;19925;-61
2023/09/23 02:42:40;;;;;;;;;;;;;;;13.62;68.04;97578.88;5026736;28;19928;-61
2023/09/23 02:45:09;;;;;;;;;;;;;;;13.57;68.10;97581.03;5023697;28;19944;-61
2023/09/23 02:47:37;;;;;;;;;;;;;;;13.57;67.99;97578.31;5003841;28;20356;-61
2023/09/23 02:50:09;;;;;;;;;;;;;;;13.54;67.92;97577.06;5014447;28;20341;-61
2023/09/23 02:52:38;;;;;;;;;;;;;;;13.58;67.63;97580.72;5008025;28;19959;-61
2023/09/23 02:55:10;;;;;;;;;;;;;;;13.55;67.61;97573.19;5020021;28;19933;-61
2023/09/23 02:57:38;;;;;;;;;;;;;;;13.56;68.15;97580.25;5009803;28;19929;-61
2023/09/23 03:00:16;;;;;;;;;;;;;;;13.50;67.63;97584.31;5028090;28;20371;-61
2023/09/23 03:02:46;;;;;;;;;;;;;;;13.42;67.34;97589.88;5027601;28;19925;-61
2023/09/23 03:05:17;;;;;;;;;;;;;;;13.40;67.35;97589.41;5028038;28;20739;-61
2023/09/23 03:07:48;;;;;;;;;;;;;;;13.38;67.56;97589.75;5019086;28;19933;-61
2023/09/23 03:10:19;;;;;;;;;;;;;;;13.35;67.16;97588.50;5007513;28;20558;-61
2023/09/23 03:13:01;;;;;;;;;;;;;;;13.36;67.35;97586.56;5022756;28;19926;-61
2023/09/23 03:15:34;;;;;;;;;;;;;;;13.36;67.15;97590.06;5022887;28;19929;-61
2023/09/23 03:18:03;;;;;;;;;;;;;;;13.35;67.18;97593.94;5025808;28;19980;-61
2023/09/23 03:20:34;;;;;;;;;;;;;;;13.27;66.86;97588.59;5016509;28;19928;-61
2023/09/23 03:23:03;;;;;;;;;;;;;;;13.22;67.07;97588.81;5010151;28;19925;-61
2023/09/23 03:25:31;;;;;;;;;;;;;;;13.26;67.35;97592.44;5012892;28;19929;-61
2023/09/23 03:27:58;;;;;;;;;;;;;;;13.32;67.35;97596.56;5031398;28;19925;-61
2023/09/23 03:30:27;;;;;;;;;;;;;;;13.35;66.54;97595.88;5013109;28;19925;-61
2023/09/23 03:32:56;;;;;;;;;;;;;;;13.39;66.40;97605.00;5030528;28;20370;-61
2023/09/23 03:35:24;;;;;;;;;;;;;;;13.42;66.43;97596.13;5027426;28;19926;-61
2023/09/23 03:37:54;;;;;;;;;;;;;;;13.45;66.28;97597.41;5030688;28;19956;-61
2023/09/23 03:40:25;;;;;;;;;;;;;;;13.44;66.34;97596.59;5019242;28;19982;-61
2023/09/23 03:42:52;;;;;;;;;;;;;;;13.46;66.00;97604.44;5030528;28;19932;-61
2023/09/23 03:45:20;;;;;;;;;;;;;;;13.36;66.33;97605.66;5012365;28;19937;-61
2023/09/23 03:47:49;;;;;;;;;;;;;;;13.26;66.20;97615.09;5012934;28;20027;-61
2023/09/23 03:50:17;;;;;;;;;;;;;;;13.24;66.01;97614.59;5010872;28;20020;-61
2023/09/23 03:52:45;;;;;;;;;;;;;;;13.22;66.45;97614.16;5030464;28;19936;-61
2023/09/23 03:55:18;;;;;;;;;;;;;;;13.14;66.33;97616.91;5030275;28;19936;-61
2023/09/23 03:57:46;;;;;;;;;;;;;;;13.13;66.27;97626.25;5010845;28;19925;-61
2023/09/23 04:00:16;;;;;;;;;;;;;;;13.07;66.25;97634.63;5023451;28;20023;-61
2023/09/23 04:02:45;;;;;;;;;;;;;;;13.03;66.37;97624.72;5030351;28;19936;-61
2023/09/23 04:05:14;;;;;;;;;;;;;;;12.99;66.33;97626.50;5008370;28;20014;-61
2023/09/23 04:07:42;;;;;;;;;;;;;;;12.93;66.19;97628.63;5009701;28;19941;-61
2023/09/23 04:10:10;;;;;;;;;;;;;;;12.90;66.72;97636.72;5004272;28;20206;-61
2023/09/23 04:12:41;;;;;;;;;;;;;;;12.89;66.76;97649.53;5029667;28;19932;-61
2023/09/23 04:15:12;;;;;;;;;;;;;;;12.85;66.52;97648.59;5019528;28;20398;-61
2023/09/23 04:17:40;;;;;;;;;;;;;;;12.86;66.76;97644.75;5022997;28;20279;-61
2023/09/23 04:20:09;;;;;;;;;;;;;;;12.82;66.19;97654.72;5029340;28;19925;-61
2023/09/23 04:22:37;;;;;;;;;;;;;;;12.78;66.66;97651.88;5025848;28;20470;-61
2023/09/23 04:25:06;;;;;;;;;;;;;;;12.75;66.96;97649.00;5025244;28;19932;-61
2023/09/23 04:27:34;;;;;;;;;;;;;;;12.78;67.03;97653.78;5012489;28;19930;-61
2023/09/23 04:30:04;;;;;;;;;;;;;;;12.77;66.84;97657.63;5028564;28;19925;-61
2023/09/23 04:32:32;;;;;;;;;;;;;;;12.84;67.03;97671.56;5027345;28;20374;-61
2023/09/23 04:35:00;;;;;;;;;;;;;;;12.85;66.77;97670.41;5022428;28;19929;-61
2023/09/23 04:37:28;;;;;;;;;;;;;;;12.83;66.59;97678.91;5021776;28;19925;-61
2023/09/23 04:39:57;;;;;;;;;;;;;;;12.85;66.74;97678.59;5015737;28;20395;-61
2023/09/23 04:42:25;;;;;;;;;;;;;;;12.82;66.36;97688.22;5027467;28;19925;-61
2023/09/23 04:44:52;;;;;;;;;;;;;;;12.82;66.21;97690.16;5026390;28;19925;-61
2023/09/23 04:47:22;;;;;;;;;;;;;;;12.79;66.39;97701.72;5028655;28;20118;-61
2023/09/23 04:49:51;;;;;;;;;;;;;;;12.76;66.47;97707.84;5024886;28;19957;-61
2023/09/23 04:52:19;;;;;;;;;;;;;;;12.70;66.51;97701.78;5030521;28;19928;-61
2023/09/23 04:54:47;;;;;;;;;;;;;;;12.81;66.57;97724.00;5027561;28;19925;-61
2023/09/23 04:57:15;;;;;;;;;;;;;;;12.86;66.63;97726.53;5029811;28;19967;-61
2023/09/23 04:59:43;;;;;;;;;;;;;;;12.94;66.42;97722.16;5028467;28;19964;-61
2023/09/23 05:02:13;;;;;;;;;;;;;;;12.99;66.21;97730.94;5027491;28;19929;-61
2023/09/23 05:04:45;;;;;;;;;;;;;;;13.00;66.42;97726.31;5027618;28;19969;-61
2023/09/23 05:07:12;;;;;;;;;;;;;;;13.05;66.15;97734.28;5025549;28;20462;-61
2023/09/23 05:09:40;;;;;;;;;;;;;;;13.05;66.42;97737.00;5016779;28;19980;-61
2023/09/23 05:12:08;;;;;;;;;;;;;;;13.01;66.09;97738.78;5019552;28;20380;-61
2023/09/23 05:14:36;;;;;;;;;;;;;;;12.96;66.23;97745.25;5017704;28;20409;-61
2023/09/23 05:17:05;;;;;;;;;;;;;;;12.92;66.62;97741.56;5019219;28;19925;-61
2023/09/23 05:19:33;;;;;;;;;;;;;;;12.91;66.59;97745.44;5028571;28;19929;-60
2023/09/23 05:22:03;;;;;;;;;;;;;;;12.90;66.51;97756.69;5022172;28;19929;-61
2023/09/23 05:24:31;;;;;;;;;;;;;;;12.91;66.95;97761.78;5026166;28;19944;-61
2023/09/23 05:26:59;;;;;;;;;;;;;;;12.89;66.89;97766.78;5019746;28;19956;-61
2023/09/23 05:29:27;;;;;;;;;;;;;;;12.87;66.90;97766.28;5029625;28;19935;-62
2023/09/23 05:31:56;;;;;;;;;;;;;;;12.89;67.27;97774.97;5035671;28;20525;-60
2023/09/23 05:34:23;;;;;;;;;;;;;;;12.92;66.91;97779.75;5025433;28;19932;-61
2023/09/23 05:36:54;;;;;;;;;;;;;;;12.92;67.16;97784.41;5029920;28;19925;-60
2023/09/23 05:39:23;;;;;;;;;;;;;;;12.86;67.09;97791.97;5027353;28;20620;-60
2023/09/23 05:41:53;;;;;;;;;;;;;;;12.77;67.26;97788.47;5028496;28;20433;-61
2023/09/23 05:44:21;;;;;;;;;;;;;;;12.72;67.48;97794.13;5024259;28;19929;-61
2023/09/23 05:46:49;;;;;;;;;;;;;;;12.72;67.82;97796.84;5028443;28;20391;-61
2023/09/23 05:49:18;;;;;;;;;;;;;;;12.71;67.88;97801.50;5025305;28;19932;-61
2023/09/23 05:51:47;;;;;;;;;;;;;;;12.71;67.81;97801.50;5023737;28;19925;-61
2023/09/23 05:54:16;;;;;;;;;;;;;;;12.77;68.03;97807.56;5026674;28;19932;-61
2023/09/23 05:56:45;;;;;;;;;;;;;;;12.79;67.88;97813.50;5022638;28;19943;-63
2023/09/23 05:59:13;;;;;;;;;;;;;;;12.80;68.14;97804.19;5028908;28;20387;-63
2023/09/23 06:01:41;;;;;;;;;;;;;;;12.82;67.79;97807.38;5028954;28;19925;-62
2023/09/23 06:04:10;;;;;;;;;;;;;;;12.87;67.69;97809.13;5009352;28;19925;-65
2023/09/23 06:06:39;;;;;;;;;;;;;;;12.88;67.49;97813.44;5027021;28;19933;-63
2023/09/23 06:09:07;;;;;;;;;;;;;;;12.82;67.49;97818.28;5028509;28;19925;-63
2023/09/23 06:11:37;;;;;;;;;;;;;;;12.82;67.53;97829.97;5028860;28;19925;-62
2023/09/23 06:14:09;;;;;;;;;;;;;;;12.72;67.63;97830.34;5025689;28;19964;-63
2023/09/23 06:16:37;;;;;;;;;;;;;;;12.65;68.08;97826.53;5023585;28;19925;-63
2023/09/23 06:19:05;;;;;;;;;;;;;;;12.61;68.43;97833.75;5023620;28;19933;-62
2023/09/23 06:21:34;;;;;;;;;;;;;;;12.58;68.53;97830.56;5026265;28;19979;-63
2023/09/23 06:24:05;;;;;;;;;;;;;;;12.58;68.34;97837.97;5029061;28;19941;-63
2023/09/23 06:26:33;;;;;;;;;;;;;;;12.59;68.58;97834.09;5027777;28;19939;-62
2023/09/23 06:29:02;;;;;;;;;;;;;;;12.59;68.60;97834.09;5026482;28;19929;-63
2023/09/23 06:31:31;;;;;;;;;;;;;;;12.55;68.42;97838.59;5028351;28;19932;-63
2023/09/23 06:33:58;;;;;;;;;;;;;;;12.62;68.51;97846.25;5026464;28;19925;-63
2023/09/23 06:36:26;;;;;;;;;;;;;;;12.71;68.60;97849.75;5028425;28;19925;-61
2023/09/23 06:38:54;;;;;;;;;;;;;;;12.67;68.45;97849.59;5019117;28;19938;-62
2023/09/23 06:41:21;;;;;;;;;;;;;;;12.64;68.29;97854.94;5024002;28;19925;-61
2023/09/23 06:43:49;;;;;;;;;;;;;;;12.65;68.63;97853.78;5014110;28;19930;-61
2023/09/23 06:46:17;;;;;;;;;;;;;;;12.72;68.63;97868.50;5010274;28;20402;-62
2023/09/23 06:48:46;;;;;;;;;;;;;;;12.76;68.41;97871.41;5029250;28;19925;-61
2023/09/23 06:51:16;;;;;;;;;;;;;;;12.84;68.32;97876.03;5027075;28;19929;-61
2023/09/23 06:53:44;;;;;;;;;;;;;;;12.83;67.93;97879.84;5021630;28;20342;-62
2023/09/23 06:56:13;;;;;;;;;;;;;;;12.77;68.21;97881.97;5020091;28;19983;-62
2023/09/23 06:58:41;;;;;;;;;;;;;;;12.77;68.42;97889.34;5030592;28;19925;-61
2023/09/23 07:01:10;;;;;;;;;;;;;;;12.76;68.25;97895.94;5032565;28;19932;-61
2023/09/23 07:03:38;;;;;;;;;;;;;;;12.79;68.56;97896.09;5032073;28;19932;-61
2023/09/23 07:06:07;;;;;;;;;;;;;;;12.87;68.57;97897.16;5030865;28;19933;-61
2023/09/23 07:08:35;;;;;;;;;;;;;;;12.99;68.46;97904.66;5031899;28;19986;-62
2023/09/23 07:11:03;;;;;;;;;;;;;;;13.07;68.05;97901.09;5029477;28;19936;-62
2023/09/23 07:13:31;;;;;;;;;;;;;;;13.13;67.88;97910.69;5030977;28;19925;-62
2023/09/23 07:15:59;;;;;;;;;;;;;;;13.15;67.70;97907.63;5019931;28;19925;-62
2023/09/23 07:18:27;;;;;;;;;;;;;;;13.20;67.33;97915.63;5032365;28;19929;-62
2023/09/23 07:20:56;;;;;;;;;;;;;;;13.24;67.33;97916.63;5032162;28;19933;-62
2023/09/23 07:23:25;;;;;;;;;;;;;;;13.23;66.64;97920.47;5032398;28;19933;-62
2023/09/23 07:25:53;;;;;;;;;;;;;;;13.17;66.83;97917.13;5031838;28;19933;-62
2023/09/23 07:28:21;;;;;;;;;;;;;;;13.17;67.08;97921.78;5025604;28;20028;-62
2023/09/23 07:30:49;;;;;;;;;;;;;;;13.20;67.10;97921.09;5031176;28;19933;-62
2023/09/23 07:33:16;;;;;;;;;;;;;;;13.22;66.94;97925.16;5028590;28;19929;-62
2023/09/23 07:35:44;;;;;;;;;;;;;;;13.23;67.54;97925.94;5029661;28;19932;-62
2023/09/23 07:38:12;;;;;;;;;;;;;;;13.34;67.62;97927.16;5027347;28;20062;-62
2023/09/23 07:40:43;;;;;;;;;;;;;;;13.41;66.70;97930.16;5027548;28;19933;-63
2023/09/23 07:43:10;;;;;;;;;;;;;;;13.47;66.50;97931.56;5026236;28;19929;-62
2023/09/23 07:45:38;;;;;;;;;;;;;;;13.45;66.43;97933.84;5029167;28;19931;-62
2023/09/23 07:48:07;;;;;;;;;;;;;;;13.52;66.20;97939.59;5030843;28;19925;-62
2023/09/23 07:50:35;;;;;;;;;;;;;;;13.50;65.32;97950.03;5028648;28;19926;-62
2023/09/23 07:53:03;;;;;;;;;;;;;;;13.56;65.18;97942.47;5026422;28;19925;-62
2023/09/23 07:55:31;;;;;;;;;;;;;;;13.54;65.68;97948.25;5019833;28;20286;-62
2023/09/23 07:58:00;;;;;;;;;;;;;;;13.57;65.90;97947.56;5018525;28;19930;-62
2023/09/23 08:00:28;;;;;;;;;;;;;;;13.63;65.38;97949.03;5028860;28;19925;-62
2023/09/23 08:02:56;;;;;;;;;;;;;;;13.71;65.31;97955.53;5004111;28;19941;-62
2023/09/23 08:05:23;;;;;;;;;;;;;;;13.73;64.89;97957.94;5029020;28;19928;-62
2023/09/23 08:07:52;;;;;;;;;;;;;;;13.66;63.88;97965.84;5030480;28;19929;-63
2023/09/23 08:10:20;;;;;;;;;;;;;;;13.69;64.61;97976.09;5026413;28;19928;-62
2023/09/23 08:12:48;;;;;;;;;;;;;;;13.66;64.03;97974.03;5029516;28;19936;-62
2023/09/23 08:15:17;;;;;;;;;;;;;;;13.70;64.41;97978.53;5030259;28;20039;-61
2023/09/23 08:17:45;;;;;;;;;;;;;;;13.80;64.58;97977.34;5029414;28;19929;-61
2023/09/23 08:20:19;;;;;;;;;;;;;;;13.78;64.17;97968.66;5028317;28;19960;-62
2023/09/23 08:22:47;;;;;;;;;;;;;;;13.85;63.40;97985.34;5027526;28;19929;-62
2023/09/23 08:25:15;;;;;;;;;;;;;;;13.80;62.95;97989.06;5027949;28;19929;-62
2023/09/23 08:27:43;;;;;;;;;;;;;;;13.80;63.30;97985.53;5026697;28;19926;-62
2023/09/23 08:30:11;;;;;;;;;;;;;;;13.82;63.01;97997.72;5030986;28;19933;-61
2023/09/23 08:32:40;;;;;;;;;;;;;;;13.87;62.97;97999.47;5029982;28;20378;-61
2023/09/23 08:35:08;;;;;;;;;;;;;;;13.94;62.88;98001.66;5026617;28;19929;-62
2023/09/23 08:37:36;;;;;;;;;;;;;;;13.98;62.15;98005.34;5028458;28;20318;-62
2023/09/23 08:40:07;;;;;;;;;;;;;;;14.02;61.75;98001.63;5025304;28;19925;-62
2023/09/23 08:42:34;;;;;;;;;;;;;;;14.10;62.96;98003.47;5027288;28;19935;-62
2023/09/23 08:45:03;;;;;;;;;;;;;;;14.11;61.70;97999.63;5030185;28;19966;-62
2023/09/23 08:47:31;;;;;;;;;;;;;;;14.18;61.57;98010.03;5030334;28;19925;-62
2023/09/23 08:50:00;;;;;;;;;;;;;;;14.17;60.64;98011.16;5030545;28;19929;-63
2023/09/23 08:52:28;;;;;;;;;;;;;;;14.19;60.06;98010.81;5030438;28;20661;-63
2023/09/23 08:54:56;;;;;;;;;;;;;;;14.18;60.73;98006.50;5018568;28;19979;-63
2023/09/23 08:57:23;;;;;;;;;;;;;;;14.23;61.04;98014.50;5030967;28;19931;-62
2023/09/23 08:59:51;;;;;;;;;;;;;;;14.27;60.90;98018.94;5031534;28;19925;-62
2023/09/23 09:02:21;;;;;;;;;;;;;;;14.31;60.29;98017.16;5030246;28;19971;-62
2023/09/23 09:04:49;;;;;;;;;;;;;;;14.38;60.50;98024.81;5030482;28;19968;-62
2023/09/23 09:07:20;;;;;;;;;;;;;;;14.39;60.57;98031.91;5012106;28;20012;-62
2023/09/23 09:09:47;;;;;;;;;;;;;;;14.39;60.22;98032.69;5029562;28;20337;-62
2023/09/23 09:12:15;;;;;;;;;;;;;;;14.48;60.96;98029.91;5026656;28;19947;-63
2023/09/23 09:14:44;;;;;;;;;;;;;;;14.52;58.36;98033.59;5024556;28;20004;-62
2023/09/23 09:17:13;;;;;;;;;;;;;;;14.53;59.41;98031.66;5024379;28;19995;-62
2023/09/23 09:19:40;;;;;;;;;;;;;;;14.57;58.55;98033.38;5029319;28;19929;-63
2023/09/23 09:22:08;;;;;;;;;;;;;;;14.62;58.71;98027.72;5029355;28;19932;-63
2023/09/23 09:24:37;;;;;;;;;;;;;;;14.62;57.42;98022.25;5028699;28;20333;-63
2023/09/23 09:27:09;;;;;;;;;;;;;;;14.65;57.01;98027.06;5029944;28;19987;-63
2023/09/23 09:29:37;;;;;;;;;;;;;;;14.68;56.90;98028.31;5021588;28;19929;-63
2023/09/23 09:32:05;;;;;;;;;;;;;;;14.73;56.01;98035.50;5027157;28;19948;-62
2023/09/23 09:34:34;;;;;;;;;;;;;;;14.74;56.94;98020.69;5026418;28;19932;-62
2023/09/23 09:37:02;;;;;;;;;;;;;;;14.87;56.60;98030.56;5027574;28;19932;-63
2023/09/23 09:39:34;;;;;;;;;;;;;;;14.92;56.68;98038.56;5014306;28;19925;-61
2023/09/23 09:42:03;;;;;;;;;;;;;;;14.86;56.12;98028.94;5016196;28;20303;-63
2023/09/23 09:44:31;;;;;;;;;;;;;;;14.81;56.15;98029.97;5029217;28;19932;-63
2023/09/23 09:46:59;;;;;;;;;;;;;;;14.87;56.56;98044.25;5018442;28;20330;-62
2023/09/23 09:49:27;;;;;;;;;;;;;;;14.85;55.53;98039.09;5011283;28;19925;-62
2023/09/23 09:51:55;;;;;;;;;;;;;;;14.91;57.06;98034.19;5023589;28;20669;-62
2023/09/23 09:54:25;;;;;;;;;;;;;;;14.89;56.24;98031.81;5019614;28;19925;-62
2023/09/23 09:56:56;;;;;;;;;;;;;;;14.90;56.11;98029.88;5029464;28;19940;-62
2023/09/23 09:59:27;;;;;;;;;;;;;;;14.88;55.80;98043.09;5029188;28;20393;-62
2023/09/23 10:01:56;;;;;;;;;;;;;;;14.81;56.19;98038.19;5029680;28;20027;-62
2023/09/23 10:04:28;;;;;;;;;;;;;;;14.78;56.79;98035.31;5028944;28;20300;-62
2023/09/23 10:06:56;;;;;;;;;;;;;;;14.85;56.93;98032.81;5015977;28;19929;-62
2023/09/23 10:09:27;;;;;;;;;;;;;;;14.91;56.83;98037.75;5008907;28;19925;-62
2023/09/23 10:11:56;;;;;;;;;;;;;;;15.04;58.04;98033.13;5018509;28;19936;-63
2023/09/23 10:14:24;;;;;;;;;;;;;;;15.15;55.72;98028.81;5027156;28;19940;-63
2023/09/23 10:16:53;;;;;;;;;;;;;;;15.24;55.10;98027.94;5029039;28;19925;-63
2023/09/23 10:19:31;;;;;;;;;;;;;;;15.20;54.21;98027.81;5029132;28;20034;-63
2023/09/23 10:22:17;;;;;;;;;;;;;;;15.23;55.24;98023.59;5030730;28;19929;-65
2023/09/23 10:24:45;;;;;;;;;;;;;;;15.19;55.45;98031.69;5019446;28;19937;-63
2023/09/23 10:27:13;;;;;;;;;;;;;;;15.14;55.61;98031.91;5010488;28;19926;-63
2023/09/23 10:29:45;;;;;;;;;;;;;;;15.14;55.37;98035.44;5024533;28;19932;-63
2023/09/23 10:32:15;;;;;;;;;;;;;;;15.13;55.40;98035.78;5010697;28;20166;-63
2023/09/23 10:34:49;;;;;;;;;;;;;;;15.14;55.83;98024.50;5025098;28;20010;-62
2023/09/23 10:37:30;;;;;;;;;;;;;;;15.19;55.85;98031.69;5010547;28;19936;-62
2023/09/23 10:40:08;;;;;;;;;;;;;;;15.30;55.71;98032.06;5025778;28;19925;-62
2023/09/23 10:42:36;;;;;;;;;;;;;;;15.39;55.07;98024.53;5019447;28;19936;-63
2023/09/23 10:45:05;;;;;;;;;;;;;;;15.51;55.28;98027.31;5024241;28;19931;-62
2023/09/23 10:47:35;;;;;;;;;;;;;;;15.61;54.36;98017.84;5020889;28;19925;-62
2023/09/23 10:50:04;;;;;;;;;;;;;;;15.70;53.84;98018.53;5024311;28;19932;-62
2023/09/23 10:52:32;;;;;;;;;;;;;;;15.76;52.80;98024.59;5026464;28;19929;-62
2023/09/23 10:55:01;;;;;;;;;;;;;;;15.79;52.71;98015.69;5029041;28;19932;-63
2023/09/23 10:57:29;;;;;;;;;;;;;;;15.78;52.71;98025.06;5016749;28;19925;-63
2023/09/23 10:59:57;;;;;;;;;;;;;;;15.75;52.72;98015.56;5025887;28;19929;-62
2023/09/23 11:02:25;;;;;;;;;;;;;;;15.78;53.09;98019.59;5026552;28;19932;-62
2023/09/23 11:04:55;;;;;;;;;;;;;;;15.78;53.08;98009.44;5019094;28;19932;-62
2023/09/23 11:07:24;;;;;;;;;;;;;;;15.86;53.44;98015.91;5010316;28;19925;-62
2023/09/23 11:09:53;;;;;;;;;;;;;;;15.92;53.60;98020.81;5019590;28;19925;-62
2023/09/23 11:12:27;;;;;;;;;;;;;;;15.98;53.57;98021.41;5027120;28;19925;-62
2023/09/23 11:14:55;;;;;;;;;;;;;;;16.05;53.75;98024.38;5025918;28;19925;-63
2023/09/23 11:17:29;;;;;;;;;;;;;;;16.10;53.29;98021.38;5013769;28;20539;-62
2023/09/23 11:19:58;;;;;;;;;;;;;;;16.14;53.03;98030.53;5028593;28;19933;-63
2023/09/23 11:22:27;;;;;;;;;;;;;;;16.15;52.94;98029.38;5014998;28;19929;-63
2023/09/23 11:24:55;;;;;;;;;;;;;;;16.17;53.66;98034.50;5020961;28;20452;-62
2023/09/23 11:27:22;;;;;;;;;;;;;;;16.11;52.75;98039.44;5020814;28;19978;-62
2023/09/23 11:29:50;;;;;;;;;;;;;;;16.03;52.78;98043.06;5020840;28;20313;-62
2023/09/23 11:32:20;;;;;;;;;;;;;;;15.92;53.11;98045.47;5027926;28;19971;-63
2023/09/23 11:34:48;;;;;;;;;;;;;;;15.84;53.49;98045.59;5027543;28;20016;-63
2023/09/23 11:37:18;;;;;;;;;;;;;;;15.77;54.09;98042.66;5019560;28;19951;-62
2023/09/23 11:39:45;;;;;;;;;;;;;;;15.82;54.42;98050.59;5017973;28;19930;-62
2023/09/23 11:42:13;;;;;;;;;;;;;;;15.87;54.41;98044.91;5017364;28;19925;-63
2023/09/23 11:44:41;;;;;;;;;;;;;;;15.94;54.72;98039.66;5030777;28;20448;-63
2023/09/23 11:47:10;;;;;;;;;;;;;;;16.04;54.73;98038.41;5032176;28;19925;-62
2023/09/23 11:49:38;;;;;;;;;;;;;;;16.07;52.80;98034.97;5031616;28;19936;-63
2023/09/23 11:52:12;;;;;;;;;;;;;;;16.09;52.27;98035.44;5032042;28;19924;-63
2023/09/23 11:54:42;;;;;;;;;;;;;;;16.06;51.66;98036.13;5031880;28;20618;-63
2023/09/23 11:57:10;;;;;;;;;;;;;;;16.05;51.86;98040.81;5030803;28;19929;-63
2023/09/23 11:59:38;;;;;;;;;;;;;;;16.04;52.00;98044.69;5032760;28;19983;-63
2023/09/23 12:02:05;;;;;;;;;;;;;;;15.95;52.25;98047.53;5031530;28;19933;-62
2023/09/23 12:04:33;;;;;;;;;;;;;;;15.94;52.16;98039.66;5031152;28;20430;-63
2023/09/23 12:07:02;;;;;;;;;;;;;;;15.99;52.18;98033.97;5031206;28;19932;-62
2023/09/23 12:09:34;;;;;;;;;;;;;;;16.03;52.07;98040.31;5030715;28;19986;-63
2023/09/23 12:12:03;;;;;;;;;;;;;;;16.06;51.08;98039.66;5031116;28;19925;-62
2023/09/23 12:14:30;;;;;;;;;;;;;;;16.08;50.38;98034.63;5026226;28;19959;-62
2023/09/23 12:17:00;;;;;;;;;;;;;;;16.08;50.64;98034.63;5021886;28;19932;-62
2023/09/23 12:19:27;;;;;;;;;;;;;;;16.06;50.73;98047.06;5030814;28;20402;-63
2023/09/23 12:21:55;;;;;;;;;;;;;;;16.04;51.15;98039.22;5030981;28;19931;-62
2023/09/23 12:24:23;;;;;;;;;;;;;;;16.07;51.51;98045.94;5030924;28;19932;-62
2023/09/23 12:26:51;;;;;;;;;;;;;;;16.15;53.68;98048.56;5019426;28;19929;-63
2023/09/23 12:29:20;;;;;;;;;;;;;;;16.19;51.13;98046.75;5018570;28;19983;-62
2023/09/23 12:31:48;;;;;;;;;;;;;;;16.20;50.44;98048.31;5016097;28;19933;-63
2023/09/23 12:34:16;;;;;;;;;;;;;;;16.23;50.85;98053.09;5010146;28;19925;-62
2023/09/23 12:36:47;;;;;;;;;;;;;;;16.29;51.66;98058.34;5017354;28;19925;-62
2023/09/23 12:39:16;;;;;;;;;;;;;;;16.26;48.98;98056.31;5030094;28;19932;-63
2023/09/23 12:41:44;;;;;;;;;;;;;;;16.23;49.05;98055.06;5012709;28;20321;-62
2023/09/23 12:44:12;;;;;;;;;;;;;;;16.24;50.30;98065.69;5030884;28;19925;-63
2023/09/23 12:46:41;;;;;;;;;;;;;;;16.22;50.56;98070.69;5030492;28;19929;-63
2023/09/23 12:49:09;;;;;;;;;;;;;;;16.24;51.15;98062.13;5028974;28;19929;-63
2023/09/23 12:51:38;;;;;;;;;;;;;;;16.32;52.63;98057.69;5030465;28;20340;-63
2023/09/23 12:54:06;;;;;;;;;;;;;;;16.36;51.25;98061.34;5026981;28;19976;-62
2023/09/23 12:56:35;;;;;;;;;;;;;;;16.39;50.90;98066.09;5023925;28;19925;-62